Time;durP1;ratioP1;P1;durP2;ratioP2;P2;SDS_P1;SDS_P2;PMS_P1;PMS_P2;Temp;Humidity;BMP_temperature;BMP_pressure;BME280_temperature;BME280_humidity;BME280_pressure;Samples;Min_cycle;Max_cycle;Signal;HPM_P1;HPM_P2
2022/08/05 00:01:58;;;;;;;6.15;2.58;;;16.80;99.90;;;;;;5052441;28;20044;-27
2022/08/05 00:04:24;;;;;;;6.53;2.60;;;16.80;99.90;;;;;;5054331;28;20049;-26
2022/08/05 00:06:49;;;;;;;6.13;2.95;;;16.90;99.90;;;;;;5070092;28;20111;-27
2022/08/05 00:09:15;;;;;;;8.15;2.75;;;16.80;99.90;;;;;;5053376;28;20068;-26
2022/08/05 00:11:41;;;;;;;6.97;3.55;;;16.80;99.90;;;;;;5053455;28;20110;-26
2022/08/05 00:14:07;;;;;;;8.80;2.75;;;16.80;99.90;;;;;;5052205;28;20057;-27
2022/08/05 00:16:32;;;;;;;7.50;3.20;;;16.80;99.90;;;;;;5053417;28;20053;-26
2022/08/05 00:18:58;;;;;;;7.97;3.05;;;16.80;93.20;;;;;;5053423;28;20442;-26
2022/08/05 00:21:24;;;;;;;7.63;3.80;;;16.80;59.20;;;;;;5053902;28;20051;-26
2022/08/05 00:23:50;;;;;;;7.95;3.38;;;16.70;57.80;;;;;;5052292;28;20075;-26
2022/08/05 00:26:15;;;;;;;5.95;3.17;;;16.80;12.60;;;;;;5052374;28;20044;-26
2022/08/05 00:28:42;;;;;;;5.05;3.53;;;16.70;6.70;;;;;;5069182;28;20041;-26
2022/08/05 00:31:07;;;;;;;9.30;4.35;;;16.70;2.30;;;;;;5052230;28;20124;-26
2022/08/05 00:33:33;;;;;;;6.15;3.25;;;16.60;1.00;;;;;;5051927;28;20128;-26
2022/08/05 00:35:59;;;;;;;9.32;3.78;;;16.60;1.00;;;;;;5051061;28;20071;-26
2022/08/05 00:38:25;;;;;;;5.25;3.03;;;16.50;7.20;;;;;;5053155;28;20041;-26
2022/08/05 00:40:54;;;;;;;8.65;3.40;;;16.50;32.30;;;;;;5052753;28;20049;-26
2022/08/05 00:43:20;;;;;;;8.60;3.92;;;16.40;49.80;;;;;;5053431;28;20450;-27
2022/08/05 00:45:46;;;;;;;9.27;4.47;;;16.40;71.30;;;;;;5051294;28;20049;-26
2022/08/05 00:48:18;;;;;;;8.90;4.65;;;16.30;81.40;;;;;;5052333;28;20053;-26
2022/08/05 00:50:45;;;;;;;10.68;4.53;;;16.30;99.90;;;;;;5051935;28;20048;-26
2022/08/05 00:53:12;;;;;;;7.57;5.07;;;16.20;99.90;;;;;;5053016;28;20045;-26
2022/08/05 00:55:38;;;;;;;12.27;5.38;;;16.30;99.90;;;;;;5051897;28;20060;-26
2022/08/05 00:58:03;;;;;;;8.55;5.18;;;16.20;99.90;;;;;;5053012;28;20048;-26
2022/08/05 01:00:30;;;;;;;10.93;5.50;;;16.20;99.90;;;;;;5053233;28;20045;-26
2022/08/05 01:02:57;;;;;;;12.23;6.45;;;16.20;99.90;;;;;;5051802;28;20152;-26
2022/08/05 01:05:23;;;;;;;7.70;5.80;;;16.20;99.90;;;;;;5051001;28;20494;-26
2022/08/05 01:07:49;;;;;;;12.57;6.47;;;16.30;99.90;;;;;;5052774;28;20045;-26
2022/08/05 01:10:19;;;;;;;10.10;7.30;;;16.30;99.90;;;;;;5055766;28;20041;-26
2022/08/05 01:12:52;;;;;;;12.38;6.50;;;16.30;99.90;;;;;;5056535;28;20055;-26
2022/08/05 01:15:23;;;;;;;10.13;6.72;;;16.30;99.90;;;;;;5057051;28;20059;-26
2022/08/05 01:17:54;;;;;;;9.95;5.72;;;16.40;99.90;;;;;;5054588;28;20099;-26
2022/08/05 01:20:50;;;;;;;9.90;5.20;;;16.40;99.90;;;;;;5055334;28;20522;-26
2022/08/05 01:23:28;;;;;;;11.93;5.75;;;16.40;99.90;;;;;;5056644;28;20056;-26
2022/08/05 01:26:26;;;;;;;11.43;6.28;;;16.40;99.90;;;;;;5056878;28;20049;-26
2022/08/05 01:29:03;;;;;;;7.97;5.45;;;16.50;99.90;;;;;;5032460;28;20114;-26
2022/08/05 01:31:39;;;;;;;10.80;6.40;;;16.40;1.00;;;;;;5052801;28;20053;-26
2022/08/05 01:34:19;;;;;;;13.00;6.65;;;16.40;1.00;;;;;;5056392;28;20048;-26
2022/08/05 01:36:53;;;;;;;11.65;5.18;;;16.40;1.00;;;;;;5038494;28;20076;-26
2022/08/05 01:39:21;;;;;;;12.27;5.18;;;16.50;99.90;;;;;;5055764;28;20379;-26
2022/08/05 01:41:49;;;;;;;8.73;5.22;;;16.50;99.90;;;;;;5055796;28;20095;-26
2022/08/05 01:44:15;;;;;;;21.50;6.75;;;16.40;99.90;;;;;;5055219;28;20141;-26
2022/08/05 01:46:43;;;;;;;14.60;6.00;;;16.40;1.00;;;;;;5055895;28;20092;-26
2022/08/05 01:49:12;;;;;;;9.57;5.70;;;16.40;1.00;;;;;;5056285;28;20055;-26
2022/08/05 01:51:39;;;;;;;8.75;5.32;;;16.40;1.00;;;;;;5053704;28;20049;-26
2022/08/05 01:54:07;;;;;;;12.27;5.60;;;16.40;99.90;;;;;;5055703;28;20080;-26
2022/08/05 01:56:38;;;;;;;10.25;5.35;;;16.40;1.00;;;;;;5054465;28;20096;-26
2022/08/05 01:59:08;;;;;;;8.13;5.22;;;16.40;99.90;;;;;;5056237;28;20395;-26
2022/08/05 02:01:36;;;;;;;11.93;5.28;;;16.40;99.90;;;;;;5055619;28;20133;-27
2022/08/05 02:04:03;;;;;;;11.90;6.03;;;16.40;1.00;;;;;;5049951;28;20120;-26
2022/08/05 02:06:29;;;;;;;9.10;5.10;;;16.30;1.00;;;;;;5052426;28;20483;-26
2022/08/05 02:08:55;;;;;;;6.32;4.95;;;16.40;1.00;;;;;;5054926;28;20084;-26
2022/08/05 02:11:21;;;;;;;10.52;6.10;;;16.30;1.00;;;;;;5055416;28;20057;-26
2022/08/05 02:13:50;;;;;;;12.13;5.72;;;16.50;1.00;;;;;;5055259;28;20057;-26
2022/08/05 02:16:33;;;;;;;8.00;5.80;;;16.40;1.00;;;;;;5053956;28;20049;-26
2022/08/05 02:19:07;;;;;;;16.85;6.88;;;16.40;1.00;;;;;;5049310;28;20136;-26
2022/08/05 02:21:36;;;;;;;9.55;6.28;;;16.40;1.00;;;;;;5053110;28;20041;-26
2022/08/05 02:24:07;;;;;;;10.23;6.78;;;16.30;1.00;;;;;;5055140;28;20041;-26
2022/08/05 02:26:50;;;;;;;11.82;6.95;;;16.20;1.00;;;;;;5054034;28;20072;-26
2022/08/05 02:29:20;;;;;;;8.98;6.60;;;16.10;1.00;;;;;;5054994;28;20045;-26
2022/08/05 02:31:47;;;;;;;9.88;6.43;;;16.10;1.00;;;;;;5054918;28;20049;-26
2022/08/05 02:34:15;;;;;;;8.50;6.15;;;16.00;1.00;;;;;;5054705;28;20045;-27
2022/08/05 02:36:50;;;;;;;14.75;6.55;;;15.90;1.00;;;;;;5054719;28;20047;-26
2022/08/05 02:39:18;;;;;;;9.30;6.85;;;15.90;1.00;;;;;;5054594;28;20126;-26
2022/08/05 02:41:47;;;;;;;10.15;6.60;;;15.80;1.00;;;;;;5070773;28;20056;-26
2022/08/05 02:44:13;;;;;;;11.02;6.63;;;15.70;1.00;;;;;;5053713;28;20052;-26
2022/08/05 02:46:41;;;;;;;8.15;6.00;;;15.70;1.00;;;;;;5053626;28;20041;-26
2022/08/05 02:49:08;;;;;;;10.07;7.55;;;15.80;1.00;;;;;;5052717;28;20128;-26
2022/08/05 02:51:36;;;;;;;9.70;6.60;;;15.70;1.00;;;;;;5054500;28;20045;-26
2022/08/05 02:54:03;;;;;;;13.38;7.50;;;15.80;1.00;;;;;;5055148;28;20076;-26
2022/08/05 02:56:29;;;;;;;11.13;7.50;;;15.80;1.00;;;;;;5053395;28;20055;-26
2022/08/05 02:58:56;;;;;;;10.60;7.03;;;15.70;1.00;;;;;;5050508;28;20498;-26
2022/08/05 03:01:24;;;;;;;11.20;7.18;;;15.70;1.00;;;;;;5053738;28;20148;-26
2022/08/05 03:03:54;;;;;;;20.95;8.13;;;15.70;1.00;;;;;;5053371;28;20205;-27
2022/08/05 03:06:21;;;;;;;9.52;6.90;;;15.70;1.00;;;;;;5043601;28;20112;-26
2022/08/05 03:08:48;;;;;;;13.02;8.10;;;15.60;1.00;;;;;;5053015;28;20041;-26
2022/08/05 03:11:24;;;;;;;11.30;8.73;;;15.50;7.80;;;;;;5054116;28;20056;-26
2022/08/05 03:13:51;;;;;;;13.98;8.80;;;15.50;1.00;;;;;;5051403;28;20437;-26
2022/08/05 03:16:17;;;;;;;11.13;8.63;;;15.40;1.00;;;;;;5052367;28;20044;-26
2022/08/05 03:18:43;;;;;;;14.02;8.05;;;15.40;1.00;;;;;;5052967;28;20045;-26
2022/08/05 03:21:09;;;;;;;10.48;8.30;;;15.30;1.00;;;;;;5053005;28;20045;-26
2022/08/05 03:23:37;;;;;;;12.88;9.43;;;15.20;1.00;;;;;;5054046;28;20071;-26
2022/08/05 03:26:03;;;;;;;12.98;9.82;;;15.30;1.00;;;;;;5053040;28;20080;-26
2022/08/05 03:28:30;;;;;;;16.15;10.25;;;15.20;7.60;;;;;;5050531;28;20564;-26
2022/08/05 03:30:58;;;;;;;12.60;10.02;;;15.10;14.50;;;;;;5052586;28;20555;-26
2022/08/05 03:33:26;;;;;;;15.70;10.30;;;15.10;7.10;;;;;;5052481;28;20562;-27
2022/08/05 03:35:52;;;;;;;12.75;10.45;;;15.30;18.90;;;;;;5052837;28;20056;-26
2022/08/05 03:38:18;;;;;;;15.05;11.45;;;15.20;39.20;;;;;;5052643;28;20041;-26
2022/08/05 03:40:45;;;;;;;12.85;9.07;;;15.20;86.10;;;;;;5052446;28;20450;-26
2022/08/05 03:43:11;;;;;;;16.17;10.27;;;15.20;57.50;;;;;;5053760;28;20049;-26
2022/08/05 03:45:37;;;;;;;12.63;9.95;;;15.10;47.20;;;;;;5052186;28;20499;-26
2022/08/05 03:48:03;;;;;;;17.45;12.05;;;15.00;54.30;;;;;;5052932;28;20041;-27
2022/08/05 03:50:44;;;;;;;15.40;11.10;;;15.20;64.70;;;;;;5053234;28;20056;-26
2022/08/05 03:53:17;;;;;;;13.70;12.20;;;15.00;87.20;;;;;;5053361;28;20045;-26
2022/08/05 03:55:55;;;;;;;12.98;10.95;;;15.10;81.20;;;;;;5051614;28;20544;-26
2022/08/05 03:58:25;;;;;;;13.15;11.57;;;15.00;92.10;;;;;;5052858;28;20048;-27
2022/08/05 04:00:52;;;;;;;14.95;12.18;;;15.00;99.90;;;;;;5052005;28;20453;-26
2022/08/05 04:03:20;;;;;;;17.90;11.10;;;15.00;98.30;;;;;;5052612;28;20051;-26
2022/08/05 04:05:46;;;;;;;15.65;10.48;;;15.00;99.90;;;;;;5052500;28;20081;-26
2022/08/05 04:08:13;;;;;;;19.05;11.07;;;14.90;99.90;;;;;;5052320;28;20067;-26
2022/08/05 04:10:40;;;;;;;14.75;11.50;;;15.10;99.90;;;;;;5051854;28;20052;-28
2022/08/05 04:13:06;;;;;;;17.77;12.38;;;15.00;98.60;;;;;;5052924;28;20060;-26
2022/08/05 04:15:32;;;;;;;16.00;12.73;;;15.00;99.90;;;;;;5052345;28;20045;-26
2022/08/05 04:18:02;;;;;;;16.35;12.05;;;15.00;99.90;;;;;;5054233;28;20069;-26
2022/08/05 04:20:28;;;;;;;16.85;11.88;;;15.00;99.90;;;;;;5052424;28;20049;-26
2022/08/05 04:22:54;;;;;;;14.10;11.38;;;14.80;99.90;;;;;;5052461;28;20144;-26
2022/08/05 04:25:19;;;;;;;15.80;13.70;;;14.90;99.90;;;;;;5053667;28;20540;-27
2022/08/05 04:27:45;;;;;;;15.27;11.23;;;14.80;99.90;;;;;;5051285;28;20052;-26
2022/08/05 04:30:11;;;;;;;11.65;10.32;;;14.90;99.90;;;;;;5050904;28;20041;-26
2022/08/05 04:32:37;;;;;;;14.00;11.88;;;14.80;99.90;;;;;;5019944;28;20395;-26
2022/08/05 04:35:03;;;;;;;14.82;12.13;;;14.70;99.90;;;;;;5051776;28;20045;-26
2022/08/05 04:37:28;;;;;;;15.50;12.52;;;14.80;99.90;;;;;;5052203;28;20048;-26
2022/08/05 04:39:55;;;;;;;17.13;12.10;;;14.80;99.90;;;;;;5051573;28;20103;-26
2022/08/05 04:42:20;;;;;;;15.32;11.43;;;14.90;99.90;;;;;;5051496;28;20090;-27
2022/08/05 04:44:46;;;;;;;15.32;12.98;;;15.10;99.90;;;;;;5054048;28;20444;-26
2022/08/05 04:47:12;;;;;;;14.77;13.25;;;15.00;99.90;;;;;;5055961;28;20589;-26
2022/08/05 04:49:38;;;;;;;12.80;11.40;;;15.10;99.90;;;;;;5056476;28;20049;-26
2022/08/05 04:52:04;;;;;;;13.10;11.55;;;15.00;99.90;;;;;;5055502;28;20068;-26
2022/08/05 04:54:30;;;;;;;13.80;12.32;;;14.90;99.90;;;;;;5055944;28;20150;-26
2022/08/05 04:56:56;;;;;;;18.65;11.25;;;15.00;99.90;;;;;;5055563;28;20517;-26
2022/08/05 04:59:22;;;;;;;13.88;11.20;;;14.90;99.90;;;;;;5054395;28;20116;-26
2022/08/05 05:01:48;;;;;;;14.90;11.57;;;15.00;99.90;;;;;;5053282;28;20183;-26
2022/08/05 05:04:14;;;;;;;15.40;10.32;;;15.00;99.90;;;;;;5066101;28;20478;-26
2022/08/05 05:06:40;;;;;;;15.38;11.90;;;14.80;99.90;;;;;;5056532;28;20133;-26
2022/08/05 05:09:06;;;;;;;14.27;12.25;;;15.00;99.90;;;;;;5071503;28;20111;-26
2022/08/05 05:11:31;;;;;;;18.30;12.80;;;15.00;99.90;;;;;;5056596;28;20068;-26
2022/08/05 05:13:57;;;;;;;13.60;12.25;;;14.80;99.90;;;;;;5055367;28;20490;-27
2022/08/05 05:16:23;;;;;;;16.05;11.13;;;14.90;99.90;;;;;;5055352;28;20045;-26
2022/08/05 05:18:49;;;;;;;14.15;10.77;;;14.80;99.90;;;;;;5055507;28;20099;-27
2022/08/05 05:21:15;;;;;;;13.85;11.45;;;15.10;99.90;;;;;;5055354;28;20437;-26
2022/08/05 05:23:41;;;;;;;13.52;12.13;;;15.00;99.90;;;;;;5054050;28;20044;-26
2022/08/05 05:26:06;;;;;;;14.25;12.43;;;15.00;99.90;;;;;;5055217;28;20045;-27
2022/08/05 05:28:32;;;;;;;15.95;11.40;;;15.00;99.90;;;;;;5054018;28;20044;-28
2022/08/05 05:30:58;;;;;;;18.23;11.75;;;15.00;99.90;;;;;;5054960;28;20052;-26
2022/08/05 05:33:24;;;;;;;15.13;12.05;;;15.00;99.90;;;;;;5055732;28;20048;-27
2022/08/05 05:35:50;;;;;;;15.73;11.82;;;15.00;99.90;;;;;;5053001;28;20048;-27
2022/08/05 05:38:16;;;;;;;13.55;10.13;;;14.80;99.90;;;;;;5054943;28;20051;-26
2022/08/05 05:40:42;;;;;;;17.92;12.50;;;14.90;99.90;;;;;;5055023;28;20054;-26
2022/08/05 05:43:08;;;;;;;16.50;12.30;;;15.00;99.90;;;;;;5054149;28;20044;-26
2022/08/05 05:45:34;;;;;;;23.35;12.98;;;14.90;99.90;;;;;;5054759;28;20447;-27
2022/08/05 05:48:00;;;;;;;14.55;12.32;;;14.90;99.90;;;;;;5054777;28;20052;-27
2022/08/05 05:50:26;;;;;;;20.27;12.32;;;14.80;99.90;;;;;;5056551;28;20355;-26
2022/08/05 05:52:53;;;;;;;19.58;12.65;;;14.80;99.90;;;;;;5054801;28;20053;-27
2022/08/05 05:55:19;;;;;;;15.77;12.60;;;15.20;99.90;;;;;;5053387;28;20049;-26
2022/08/05 05:57:46;;;;;;;13.13;11.73;;;15.40;99.90;;;;;;5053486;28;20056;-26
2022/08/05 06:00:17;;;;;;;14.50;12.07;;;15.80;99.90;;;;;;5055570;28;20041;-26
2022/08/05 06:02:43;;;;;;;17.30;12.32;;;16.20;99.90;;;;;;5053670;28;20051;-27
2022/08/05 06:05:11;;;;;;;20.88;12.10;;;16.80;99.90;;;;;;5054476;28;20040;-26
2022/08/05 06:07:38;;;;;;;11.70;10.50;;;17.40;99.90;;;;;;5053352;28;20049;-26
2022/08/05 06:10:05;;;;;;;14.52;10.15;;;17.80;1.00;;;;;;5054577;28;20079;-27
2022/08/05 06:12:30;;;;;;;12.15;9.40;;;18.20;99.90;;;;;;5056012;28;20538;-26
2022/08/05 06:14:56;;;;;;;11.43;8.65;;;18.30;99.90;;;;;;5054038;28;20088;-27
2022/08/05 06:17:22;;;;;;;13.32;7.65;;;18.30;99.90;;;;;;5053195;28;20135;-26
2022/08/05 06:19:48;;;;;;;11.23;7.07;;;18.20;99.90;;;;;;5054129;28;20044;-26
2022/08/05 06:22:22;;;;;;;7.90;6.60;;;18.20;1.00;;;;;;5052135;28;20048;-26
2022/08/05 06:24:48;;;;;;;9.98;6.18;;;18.20;1.00;;;;;;5052191;28;20076;-27
2022/08/05 06:27:13;;;;;;;6.95;3.17;;;18.20;73.40;;;;;;5050761;28;20478;-27
2022/08/05 06:29:39;;;;;;;4.22;2.20;;;18.10;1.00;;;;;;5052810;28;20049;-27
2022/08/05 06:32:05;;;;;;;6.28;2.60;;;18.10;99.90;;;;;;5052273;28;20037;-26
2022/08/05 06:34:31;;;;;;;4.03;1.92;;;18.10;99.90;;;;;;5054944;28;20075;-26
2022/08/05 06:36:56;;;;;;;4.55;1.90;;;18.00;99.90;;;;;;5035406;28;20127;-26
2022/08/05 06:39:22;;;;;;;3.10;1.45;;;17.90;99.90;;;;;;5051857;28;20126;-27
2022/08/05 06:41:48;;;;;;;4.35;1.77;;;17.90;59.80;;;;;;5068405;28;20171;-26
2022/08/05 06:44:14;;;;;;;3.42;0.70;;;17.90;1.00;;;;;;5053884;28;20037;-26
2022/08/05 06:46:40;;;;;;;12.48;1.05;;;18.00;1.00;;;;;;5054693;28;20612;-26
2022/08/05 06:49:06;;;;;;;3.95;0.80;;;18.00;99.90;;;;;;5054013;28;20053;-27
2022/08/05 06:51:31;;;;;;;4.45;0.70;;;18.10;99.90;;;;;;5053110;28;20055;-26
2022/08/05 06:53:59;;;;;;;2.70;0.70;;;18.20;99.90;;;;;;5054493;28;20088;-26
2022/08/05 06:56:25;;;;;;;2.45;0.40;;;18.20;80.60;;;;;;5052526;28;20040;-26
2022/08/05 06:58:51;;;;;;;1.50;0.45;;;18.30;99.90;;;;;;5054514;28;20079;-26
2022/08/05 07:01:17;;;;;;;3.45;0.90;;;18.40;99.90;;;;;;5049807;28;20041;-27
2022/08/05 07:03:42;;;;;;;3.67;0.50;;;18.50;35.30;;;;;;5041974;28;20518;-26
2022/08/05 07:06:08;;;;;;;2.20;0.70;;;18.50;1.00;;;;;;5043791;28;20044;-26
2022/08/05 07:08:34;;;;;;;2.78;0.45;;;18.60;91.50;;;;;;5053132;28;20045;-26
2022/08/05 07:11:00;;;;;;;3.00;0.50;;;18.70;79.60;;;;;;5054323;28;20124;-26
2022/08/05 07:18:54;;;;;;;4.05;0.52;;;18.80;99.90;;;;;;5053646;28;20383;-26
2022/08/05 07:21:20;;;;;;;1.63;0.40;;;18.80;99.90;;;;;;5054670;28;20041;-26
2022/08/05 07:23:45;;;;;;;2.20;0.55;;;18.70;99.90;;;;;;5045987;28;20408;-27
2022/08/05 07:26:11;;;;;;;1.55;0.45;;;18.70;99.90;;;;;;5054654;28;20428;-26
2022/08/05 07:28:37;;;;;;;2.67;0.40;;;18.90;99.90;;;;;;5053519;28;20055;-26
2022/08/05 07:31:02;;;;;;;1.95;0.55;;;19.10;99.90;;;;;;5052953;28;20071;-26
2022/08/05 07:33:28;;;;;;;4.35;0.68;;;19.30;99.90;;;;;;5052843;28;20041;-26
2022/08/05 07:35:54;;;;;;;3.03;0.50;;;19.50;99.90;;;;;;5053970;28;20141;-26
2022/08/05 07:38:20;;;;;;;3.15;0.57;;;19.50;16.70;;;;;;5053856;28;20395;-26
2022/08/05 07:40:46;;;;;;;2.35;0.40;;;19.50;15.30;;;;;;5036563;28;20203;-26
2022/08/05 07:43:15;;;;;;;2.92;0.43;;;19.60;30.00;;;;;;5053795;28;20533;-26
2022/08/05 07:45:43;;;;;;;2.08;0.30;;;19.70;1.00;;;;;;5052692;28;20130;-26
2022/08/05 07:48:09;;;;;;;3.95;0.50;;;19.60;1.00;;;;;;5052760;28;20045;-26
2022/08/05 07:50:35;;;;;;;1.35;0.57;;;19.70;1.00;;;;;;5053597;28;20064;-26
2022/08/05 07:53:01;;;;;;;3.53;0.40;;;19.90;1.00;;;;;;5053618;28;20052;-26
2022/08/05 07:55:27;;;;;;;2.60;0.45;;;20.00;99.90;;;;;;5018604;28;20142;-26
2022/08/05 07:57:52;;;;;;;5.30;0.93;;;19.90;1.00;;;;;;5052984;28;20132;-26
2022/08/05 08:00:18;;;;;;;4.03;0.60;;;20.00;1.00;;;;;;5053622;28;20045;-26
2022/08/05 08:02:44;;;;;;;4.10;0.90;;;20.10;1.00;;;;;;5050561;28;20507;-26
2022/08/05 08:05:10;;;;;;;3.20;0.30;;;19.90;1.00;;;;;;5052976;28;20506;-26
2022/08/05 08:07:36;;;;;;;4.47;0.70;;;19.50;1.00;;;;;;5053516;28;20056;-25
2022/08/05 08:10:03;;;;;;;3.70;1.10;;;19.10;1.00;;;;;;5053284;28;20418;-26
2022/08/05 08:12:29;;;;;;;4.00;0.50;;;19.00;28.50;;;;;;5053128;28;20406;-26
2022/08/05 08:14:55;;;;;;;2.90;0.60;;;18.90;99.90;;;;;;5048280;28;20057;-26
2022/08/05 08:17:21;;;;;;;2.33;0.63;;;19.10;99.90;;;;;;5032351;28;20111;-26
2022/08/05 08:19:48;;;;;;;2.17;0.45;;;19.30;51.70;;;;;;5037614;28;20050;-26
2022/08/05 08:22:13;;;;;;;3.67;0.50;;;19.50;1.00;;;;;;5051787;28;20084;-26
2022/08/05 08:24:39;;;;;;;3.83;0.60;;;19.70;1.00;;;;;;5039918;28;20045;-26
2022/08/05 08:27:06;;;;;;;2.50;0.63;;;19.50;99.90;;;;;;5056280;28;20045;-26
2022/08/05 08:29:31;;;;;;;2.35;0.43;;;19.20;99.90;;;;;;5057196;28;20045;-27
2022/08/05 08:31:57;;;;;;;3.15;0.40;;;19.20;99.90;;;;;;5053159;28;20385;-26
2022/08/05 08:34:24;;;;;;;3.60;0.40;;;19.50;99.90;;;;;;5053479;28;20041;-26
2022/08/05 08:36:50;;;;;;;3.67;0.60;;;19.60;99.90;;;;;;5054134;28;20044;-26
2022/08/05 08:39:20;;;;;;;2.65;0.30;;;19.40;1.00;;;;;;5056378;28;20052;-26
2022/08/05 08:41:50;;;;;;;4.53;0.35;;;19.70;1.00;;;;;;5057129;28;20041;-26
2022/08/05 08:44:18;;;;;;;1.27;0.20;;;19.80;1.00;;;;;;5054229;28;20483;-26
2022/08/05 08:46:46;;;;;;;3.22;0.88;;;19.70;99.90;;;;;;5054329;28;20076;-26
2022/08/05 08:49:14;;;;;;;2.58;0.65;;;19.50;99.90;;;;;;5055858;28;20471;-27
2022/08/05 08:51:41;;;;;;;0.80;0.22;;;19.50;99.90;;;;;;5052078;28;20056;-26
2022/08/05 08:54:09;;;;;;;2.30;0.50;;;19.70;99.90;;;;;;5057195;28;20421;-26
2022/08/05 08:56:37;;;;;;;2.60;0.35;;;19.70;99.90;;;;;;5056855;28;20135;-26
2022/08/05 08:59:03;;;;;;;1.33;0.43;;;19.60;99.90;;;;;;5055745;28;20045;-26
2022/08/05 09:01:30;;;;;;;1.77;0.35;;;19.70;99.90;;;;;;5055326;28;20060;-27
2022/08/05 09:03:58;;;;;;;1.65;0.22;;;19.50;1.00;;;;;;5053597;28;20091;-26
2022/08/05 09:06:28;;;;;;;1.27;0.30;;;19.50;99.90;;;;;;5056663;28;20060;-26
2022/08/05 09:08:54;;;;;;;4.32;0.40;;;20.10;1.00;;;;;;5054918;28;20127;-26
2022/08/05 09:11:20;;;;;;;3.53;1.13;;;20.30;99.90;;;;;;5055449;28;20474;-26
2022/08/05 09:13:46;;;;;;;2.75;0.52;;;20.60;1.00;;;;;;5056718;28;20092;-26
2022/08/05 09:16:12;;;;;;;4.03;0.30;;;20.90;1.00;;;;;;5051624;28;20041;-27
2022/08/05 09:18:39;;;;;;;1.00;0.20;;;20.40;99.90;;;;;;5054025;28;20041;-26
2022/08/05 09:21:05;;;;;;;3.83;0.50;;;19.80;99.90;;;;;;5056365;28;20110;-26
2022/08/05 09:23:31;;;;;;;2.53;0.30;;;20.40;1.00;;;;;;5055355;28;20052;-26
2022/08/05 09:26:18;;;;;;;1.92;0.20;;;20.90;99.90;;;;;;5053465;28;20045;-26
2022/08/05 09:28:46;;;;;;;5.57;0.40;;;21.20;99.90;;;;;;5052282;28;20076;-26
2022/08/05 09:31:15;;;;;;;2.20;0.30;;;21.30;1.00;;;;;;5054390;28;20051;-27
2022/08/05 09:33:49;;;;;;;2.75;0.30;;;21.60;45.20;;;;;;5053126;28;20110;-26
2022/08/05 09:36:15;;;;;;;5.72;0.80;;;21.90;99.90;;;;;;5054417;28;20051;-28
2022/08/05 09:39:02;;;;;;;2.40;0.43;;;21.50;1.00;;;;;;5054655;28;20049;-26
2022/08/05 09:41:27;;;;;;;1.60;0.30;;;21.30;99.90;;;;;;5050036;28;20449;-27
2022/08/05 09:43:53;;;;;;;1.23;0.20;;;21.20;99.90;;;;;;5053148;28;20045;-26
2022/08/05 09:46:32;;;;;;;1.70;0.30;;;21.30;99.90;;;;;;5050770;28;20041;-27
2022/08/05 09:49:03;;;;;;;2.22;0.43;;;21.50;99.90;;;;;;5052683;28;20393;-26
2022/08/05 09:51:37;;;;;;;2.85;0.30;;;21.60;99.90;;;;;;5053998;28;20072;-26
2022/08/05 09:54:07;;;;;;;1.90;0.43;;;21.80;99.90;;;;;;5049054;28;20044;-27
2022/08/05 09:56:36;;;;;;;3.45;0.25;;;21.60;99.90;;;;;;5052796;28;20065;-26
2022/08/05 09:59:03;;;;;;;0.50;0.25;;;21.70;99.90;;;;;;5051853;28;20083;-27
2022/08/05 10:01:32;;;;;;;1.92;0.30;;;21.90;99.90;;;;;;5051393;28;20243;-26
2022/08/05 10:04:11;;;;;;;1.88;0.20;;;22.20;54.30;;;;;;5051899;28;20128;-27
2022/08/05 10:06:39;;;;;;;1.20;0.15;;;22.20;99.90;;;;;;5035953;28;20050;-26
2022/08/05 10:09:13;;;;;;;2.85;0.20;;;22.30;99.90;;;;;;5034452;28;20045;-25
2022/08/05 10:11:40;;;;;;;2.20;0.63;;;22.60;99.90;;;;;;5052018;28;20053;-26
2022/08/05 10:14:29;;;;;;;1.75;0.38;;;22.20;99.90;;;;;;5049968;28;20053;-25
2022/08/05 10:16:56;;;;;;;4.38;0.30;;;22.40;99.90;;;;;;5054051;28;20048;-26
2022/08/05 10:19:26;;;;;;;1.05;0.25;;;22.60;99.90;;;;;;5054167;28;20053;-26
2022/08/05 10:21:52;;;;;;;1.90;0.22;;;22.30;99.90;;;;;;5053201;28;20066;-26
2022/08/05 10:24:19;;;;;;;0.90;0.20;;;22.20;99.90;;;;;;5052138;28;20037;-26
2022/08/05 10:26:48;;;;;;;0.93;0.10;;;22.30;99.90;;;;;;5055126;28;20053;-26
2022/08/05 10:29:14;;;;;;;0.47;0.10;;;22.60;99.90;;;;;;5053014;28;20440;-26
2022/08/05 10:31:40;;;;;;;0.95;0.20;;;22.70;99.90;;;;;;5051926;28;20049;-26
2022/08/05 10:34:08;;;;;;;1.60;0.10;;;22.60;99.90;;;;;;5052604;28;20422;-26
2022/08/05 10:36:39;;;;;;;0.98;0.10;;;22.20;99.90;;;;;;5054080;28;20040;-26
2022/08/05 10:39:09;;;;;;;1.63;0.10;;;22.20;99.90;;;;;;5052024;28;20123;-26
2022/08/05 10:41:44;;;;;;;1.75;0.20;;;22.20;99.90;;;;;;5053039;28;20490;-27
2022/08/05 10:44:14;;;;;;;1.77;0.17;;;21.70;99.90;;;;;;5052989;28;20048;-25
2022/08/05 10:46:52;;;;;;;1.48;0.22;;;21.90;99.90;;;;;;5050946;28;20089;-26
2022/08/05 10:49:18;;;;;;;0.43;0.10;;;22.10;99.90;;;;;;5047190;28;20495;-26
2022/08/05 10:51:49;;;;;;;3.92;0.20;;;22.20;99.90;;;;;;5053518;28;20178;-26
2022/08/05 10:54:16;;;;;;;0.88;0.10;;;22.40;99.90;;;;;;5051638;28;20495;-26
2022/08/05 10:56:48;;;;;;;1.60;0.25;;;22.10;99.90;;;;;;5053462;28;20111;-26
2022/08/05 10:59:24;;;;;;;3.70;0.20;;;22.20;99.90;;;;;;5053547;28;20103;-25
2022/08/05 11:02:08;;;;;;;0.70;0.10;;;22.30;99.90;;;;;;5050694;28;20498;-26
2022/08/05 11:04:48;;;;;;;4.38;0.15;;;22.70;99.90;;;;;;5054123;28;20045;-26
2022/08/05 11:07:17;;;;;;;1.08;0.10;;;22.40;1.00;;;;;;5052337;28;20124;-26
2022/08/05 11:09:53;;;;;;;3.15;0.20;;;22.40;99.90;;;;;;5052401;28;20406;-27
2022/08/05 11:12:38;;;;;;;3.15;0.70;;;22.50;99.90;;;;;;5054255;28;20095;-26
2022/08/05 11:15:05;;;;;;;2.75;0.20;;;22.30;99.90;;;;;;5053100;28;20418;-26
2022/08/05 11:17:36;;;;;;;1.67;0.10;;;22.20;99.90;;;;;;5054201;28;20056;-26
2022/08/05 11:20:02;;;;;;;3.75;0.20;;;22.50;99.90;;;;;;5051503;28;20475;-26
2022/08/05 11:22:47;;;;;;;2.78;0.30;;;22.70;99.90;;;;;;5053023;28;20053;-26
2022/08/05 11:25:37;;;;;;;3.45;0.43;;;21.90;99.90;;;;;;5053994;28;20100;-26
2022/08/05 11:28:11;;;;;;;2.17;0.30;;;20.80;1.00;;;;;;5053394;28;20048;-26
2022/08/05 11:31:01;;;;;;;1.27;0.28;;;21.10;1.00;;;;;;5053841;28;20052;-25
2022/08/05 11:33:36;;;;;;;2.75;0.30;;;21.40;1.00;;;;;;5054033;28;20084;-26
2022/08/05 11:36:03;;;;;;;3.13;0.45;;;22.00;99.90;;;;;;5053914;28;20049;-26
2022/08/05 11:38:38;;;;;;;2.50;0.25;;;22.00;99.90;;;;;;5052779;28;20048;-26
2022/08/05 11:41:22;;;;;;;1.65;0.20;;;21.80;99.90;;;;;;5046739;28;20044;-26
2022/08/05 11:43:56;;;;;;;2.28;0.28;;;21.80;99.90;;;;;;5041658;28;20051;-26
2022/08/05 11:46:28;;;;;;;2.08;0.28;;;21.20;99.90;;;;;;5042069;28;20049;-27
2022/08/05 11:48:55;;;;;;;3.80;0.45;;;20.80;99.90;;;;;;5040431;28;20072;-27
2022/08/05 11:51:21;;;;;;;1.65;0.55;;;20.60;99.90;;;;;;5056789;28;20095;-26
2022/08/05 11:53:47;;;;;;;1.40;0.20;;;20.80;99.90;;;;;;5053334;28;20140;-28
2022/08/05 11:56:14;;;;;;;2.92;0.30;;;21.00;99.90;;;;;;5052815;28;20466;-27
2022/08/05 11:58:43;;;;;;;2.85;0.40;;;21.00;1.00;;;;;;5053564;28;20423;-26
2022/08/05 12:01:14;;;;;;;2.53;0.20;;;21.50;3.60;;;;;;5053681;28;20103;-26
2022/08/05 12:03:48;;;;;;;3.53;0.35;;;21.30;1.00;;;;;;5052989;28;20053;-26
2022/08/05 12:06:15;;;;;;;1.55;0.30;;;20.50;1.00;;;;;;5049200;28;20056;-25
2022/08/05 12:08:43;;;;;;;5.93;1.00;;;20.00;99.90;;;;;;5054241;28;20060;-26
2022/08/05 12:11:10;;;;;;;2.40;0.30;;;20.00;99.90;;;;;;5053459;28;20044;-26
2022/08/05 12:13:37;;;;;;;2.95;0.20;;;20.30;1.00;;;;;;5052195;28;20099;-25
2022/08/05 12:16:07;;;;;;;3.22;0.45;;;20.20;1.00;;;;;;5053777;28;20182;-26
2022/08/05 12:18:34;;;;;;;2.67;0.75;;;19.60;15.80;;;;;;5053496;28;20045;-26
2022/08/05 12:21:15;;;;;;;4.25;0.40;;;19.30;99.90;;;;;;5053310;28;20067;-25
2022/08/05 12:23:58;;;;;;;2.80;0.40;;;19.40;99.90;;;;;;5053676;28;20136;-26
2022/08/05 12:26:30;;;;;;;2.35;0.20;;;19.90;99.90;;;;;;5054245;28;20048;-27
2022/08/05 12:28:55;;;;;;;0.93;0.52;;;20.10;1.00;;;;;;5053885;28;20049;-26
2022/08/05 12:31:21;;;;;;;3.30;0.30;;;20.30;1.00;;;;;;5052490;28;20064;-26
2022/08/05 12:33:47;;;;;;;3.25;0.30;;;20.10;1.00;;;;;;5053324;28;20064;-25
2022/08/05 12:36:14;;;;;;;3.22;0.30;;;20.10;1.00;;;;;;5052976;28;20402;-25
2022/08/05 12:38:40;;;;;;;3.15;0.40;;;20.30;1.00;;;;;;5053285;28;20052;-26
2022/08/05 12:41:12;;;;;;;2.65;0.30;;;20.40;1.00;;;;;;5053790;28;20067;-26
2022/08/05 12:43:58;;;;;;;2.25;0.22;;;20.40;1.00;;;;;;5052922;28;20045;-26
2022/08/05 12:46:26;;;;;;;2.00;0.20;;;21.00;1.00;;;;;;5052669;28;20048;-26
2022/08/05 12:49:08;;;;;;;1.35;0.20;;;21.50;99.90;;;;;;5049761;28;20134;-25
2022/08/05 12:51:44;;;;;;;3.88;0.40;;;21.60;99.90;;;;;;5053210;28;20041;-27
2022/08/05 12:54:09;;;;;;;3.58;0.90;;;21.30;99.90;;;;;;5053026;28;20055;-26
2022/08/05 12:56:41;;;;;;;3.00;0.38;;;20.60;99.90;;;;;;5052759;28;20052;-25